createdAt,value
2022-12-11T00:01:25.404Z,100699.72
2022-12-11T00:03:52.063Z,100690.66
2022-12-11T00:06:21.732Z,100706.88
2022-12-11T00:08:51.467Z,100704.44
2022-12-11T00:11:17.964Z,100697.53
2022-12-11T00:13:44.593Z,100696.78
2022-12-11T00:16:11.592Z,100692.34
2022-12-11T00:18:38.575Z,100698.22
2022-12-11T00:21:07.643Z,100702.47
2022-12-11T00:23:37.573Z,100701.59
2022-12-11T00:26:09.398Z,100691.44
2022-12-11T00:28:36.210Z,100710.88
2022-12-11T00:31:07.736Z,100703.09
2022-12-11T00:33:34.573Z,100711.63
2022-12-11T00:36:01.388Z,100708.19
2022-12-11T00:38:28.587Z,100701.47
2022-12-11T00:41:01.000Z,100700.81
2022-12-11T00:43:27.458Z,100719.56
2022-12-11T00:45:54.087Z,100709.16
2022-12-11T00:48:20.599Z,100711.81
2022-12-11T00:50:47.172Z,100714.41
2022-12-11T00:53:13.817Z,100700.94
2022-12-11T00:55:42.158Z,100706.91
2022-12-11T00:58:09.275Z,100701.78
2022-12-11T01:00:36.148Z,100680.66
2022-12-11T01:03:03.181Z,100706.88
2022-12-11T01:05:29.777Z,100698.22
2022-12-11T01:07:56.329Z,100698.28
2022-12-11T01:10:25.672Z,100700.09
2022-12-11T01:12:58.302Z,100703.53
2022-12-11T01:15:28.117Z,100697.97
2022-12-11T01:17:55.340Z,100706.13
2022-12-11T01:20:22.865Z,100693.59
2022-12-11T01:22:53.669Z,100705.47
2022-12-11T01:25:20.176Z,100701.41
2022-12-11T01:27:46.965Z,100706.25
2022-12-11T01:30:14.159Z,100699.31
2022-12-11T01:32:40.617Z,100709.25
2022-12-11T01:35:08.819Z,100703.97
2022-12-11T01:37:35.539Z,100709.00
2022-12-11T01:40:03.926Z,100697.09
2022-12-11T01:42:30.599Z,100705.53
2022-12-11T01:45:26.728Z,100705.34
2022-12-11T01:48:08.345Z,100692.50
2022-12-11T01:50:41.106Z,100681.75
2022-12-11T01:53:12.478Z,100694.94
2022-12-11T01:55:39.970Z,100688.91
2022-12-11T01:58:07.062Z,100689.69
2022-12-11T02:00:33.580Z,100685.41
2022-12-11T02:03:00.153Z,100682.97
2022-12-11T02:05:26.645Z,100677.88
2022-12-11T02:07:58.688Z,100680.66
2022-12-11T02:10:38.231Z,100678.19
2022-12-11T02:13:13.325Z,100670.59
2022-12-11T02:15:56.616Z,100676.47
2022-12-11T02:18:47.391Z,100683.22
2022-12-11T02:21:26.207Z,100676.50
2022-12-11T02:24:18.353Z,100673.09
2022-12-11T02:27:03.292Z,100674.06
2022-12-11T02:29:39.512Z,100663.13
2022-12-11T02:32:35.273Z,100674.69
2022-12-11T02:35:24.351Z,100667.81
2022-12-11T02:38:02.917Z,100666.25
2022-12-11T02:40:33.103Z,100668.81
2022-12-11T02:43:03.430Z,100672.28
2022-12-11T02:45:32.324Z,100668.03
2022-12-11T02:48:02.271Z,100669.84
2022-12-11T02:50:30.167Z,100671.56
2022-12-11T02:52:59.640Z,100662.03
2022-12-11T02:55:28.229Z,100659.03
2022-12-11T02:58:14.700Z,100660.78
2022-12-11T03:00:41.153Z,100644.69
2022-12-11T03:03:07.977Z,100657.38
2022-12-11T03:05:35.228Z,100661.44
2022-12-11T03:08:02.333Z,100656.59
2022-12-11T03:10:28.857Z,100655.09
2022-12-11T03:12:57.782Z,100656.84
2022-12-11T03:15:36.201Z,100646.72
2022-12-11T03:18:49.556Z,100664.47
2022-12-11T03:21:27.547Z,100645.84
2022-12-11T03:24:21.206Z,100661.88
2022-12-11T03:27:17.674Z,100664.47
2022-12-11T03:29:59.231Z,100665.47
2022-12-11T03:32:35.980Z,100666.25
2022-12-11T03:35:13.667Z,100662.03
2022-12-11T03:37:42.306Z,100667.34
2022-12-11T03:40:14.816Z,100663.22
2022-12-11T03:42:43.773Z,100665.78
2022-12-11T03:45:11.942Z,100652.31
2022-12-11T03:47:40.798Z,100655.69
2022-12-11T03:50:10.354Z,100653.97
2022-12-11T03:52:45.593Z,100641.28
2022-12-11T03:55:14.916Z,100659.94
2022-12-11T03:57:41.404Z,100651.25
2022-12-11T04:00:12.119Z,100658.88
2022-12-11T04:02:38.909Z,100651.28
2022-12-11T04:05:05.831Z,100645.44
2022-12-11T04:07:32.404Z,100655.53
2022-12-11T04:09:59.110Z,100641.84
2022-12-11T04:12:25.618Z,100637.56
2022-12-11T04:15:04.145Z,100643.59
2022-12-11T04:17:55.782Z,100648.63
2022-12-11T04:20:45.560Z,100645.13
2022-12-11T04:23:33.880Z,100640.88
2022-12-11T04:26:08.081Z,100645.97
2022-12-11T04:28:35.751Z,100642.44
2022-12-11T04:31:02.918Z,100645.03
2022-12-11T04:33:29.601Z,100625.53
2022-12-11T04:36:00.279Z,100634.75
2022-12-11T04:38:27.400Z,100642.44
2022-12-11T04:41:02.150Z,100628.94
2022-12-11T04:43:29.120Z,100626.47
2022-12-11T04:46:07.176Z,100622.34
2022-12-11T04:48:34.677Z,100619.75
2022-12-11T04:51:01.201Z,100624.78
2022-12-11T04:53:28.271Z,100626.53
2022-12-11T04:55:55.179Z,100623.22
2022-12-11T04:58:22.342Z,100639.41
2022-12-11T05:00:48.809Z,100626.59
2022-12-11T05:03:15.373Z,100615.06
2022-12-11T05:05:48.136Z,100636.09
2022-12-11T05:08:14.647Z,100613.09
2022-12-11T05:10:45.756Z,100618.25
2022-12-11T05:13:15.042Z,100612.25
2022-12-11T05:15:41.563Z,100614.78
2022-12-11T05:18:08.068Z,100624.03
2022-12-11T05:20:34.556Z,100621.34
2022-12-11T05:23:01.047Z,100621.34
2022-12-11T05:25:27.490Z,100610.28
2022-12-11T05:27:53.989Z,100603.47
2022-12-11T05:30:20.502Z,100606.78
2022-12-11T05:32:47.009Z,100616.94
2022-12-11T05:35:13.700Z,100610.91
2022-12-11T05:37:40.947Z,100612.56
2022-12-11T05:40:07.988Z,100608.44
2022-12-11T05:42:35.016Z,100605.78
2022-12-11T05:45:01.539Z,100615.22
2022-12-11T05:47:28.074Z,100606.06
2022-12-11T05:49:54.565Z,100599.94
2022-12-11T05:52:21.687Z,100603.19
2022-12-11T05:54:51.043Z,100593.19
2022-12-11T05:57:17.789Z,100581.44
2022-12-11T05:59:45.229Z,100609.22
2022-12-11T06:02:11.782Z,100607.38
2022-12-11T06:04:38.313Z,100604.84
2022-12-11T06:07:04.771Z,100610.00
2022-12-11T06:09:31.273Z,100616.75
2022-12-11T06:11:57.735Z,100610.69
2022-12-11T06:14:24.192Z,100605.69
2022-12-11T06:16:50.894Z,100597.88
2022-12-11T06:19:18.585Z,100595.41
2022-12-11T06:21:45.974Z,100600.41
2022-12-11T06:24:12.559Z,100598.78
2022-12-11T06:26:39.195Z,100599.66
2022-12-11T06:29:09.217Z,100606.31
2022-12-11T06:31:39.378Z,100605.53
2022-12-11T06:34:06.073Z,100587.84
2022-12-11T06:36:32.652Z,100594.38
2022-12-11T06:38:59.084Z,100591.81
2022-12-11T06:41:25.816Z,100603.88
2022-12-11T06:43:52.475Z,100594.44
2022-12-11T06:46:20.111Z,100608.88
2022-12-11T06:48:47.976Z,100599.66
2022-12-11T06:51:17.031Z,100620.03
2022-12-11T06:53:44.130Z,100610.69
2022-12-11T06:56:14.272Z,100608.13
2022-12-11T06:58:42.415Z,100618.28
2022-12-11T07:01:19.147Z,100613.06
2022-12-11T07:03:45.866Z,100610.53
2022-12-11T07:06:12.884Z,100616.56
2022-12-11T07:08:39.516Z,100603.16
2022-12-11T07:11:09.546Z,100603.88
2022-12-11T07:13:36.372Z,100601.09
2022-12-11T07:16:04.723Z,100609.06
2022-12-11T07:18:34.573Z,100609.84
2022-12-11T07:21:01.172Z,100613.22
2022-12-11T07:23:28.733Z,100610.59
2022-12-11T07:25:56.571Z,100622.44
2022-12-11T07:28:23.322Z,100619.91
2022-12-11T07:30:50.032Z,100607.34
2022-12-11T07:33:16.538Z,100620.09
2022-12-11T07:35:43.087Z,100609.31
2022-12-11T07:38:09.584Z,100626.97
2022-12-11T07:40:36.077Z,100622.00
2022-12-11T07:43:02.725Z,100605.91
2022-12-11T07:45:29.627Z,100615.13
2022-12-11T07:47:56.258Z,100582.34
2022-12-11T07:50:23.109Z,100614.16
2022-12-11T07:52:49.570Z,100610.53
2022-12-11T07:55:16.173Z,100611.38
2022-12-11T07:57:42.638Z,100607.03
2022-12-11T08:00:10.599Z,100608.66
2022-12-11T08:02:37.891Z,100608.91
2022-12-11T08:05:04.973Z,100612.41
2022-12-11T08:07:34.393Z,100625.16
2022-12-11T08:10:01.008Z,100621.84
2022-12-11T08:12:27.444Z,100620.91
2022-12-11T08:14:53.892Z,100601.47
2022-12-11T08:17:23.373Z,100627.31
2022-12-11T08:19:53.942Z,100625.59
2022-12-11T08:22:20.395Z,100616.06
2022-12-11T08:24:46.930Z,100618.63
2022-12-11T08:27:13.386Z,100622.81
2022-12-11T08:29:39.901Z,100605.16
2022-12-11T08:32:11.915Z,100599.81
2022-12-11T08:34:38.847Z,100625.88
2022-12-11T08:37:05.368Z,100625.03
2022-12-11T08:39:31.902Z,100617.31
2022-12-11T08:41:58.669Z,100621.47
2022-12-11T08:44:26.767Z,100622.41
2022-12-11T08:46:53.276Z,100624.81
2022-12-11T08:49:19.727Z,100612.03
2022-12-11T08:51:46.227Z,100620.44
2022-12-11T08:54:12.793Z,100605.81
2022-12-11T08:56:39.340Z,100608.47
2022-12-11T08:59:06.249Z,100612.00
2022-12-11T09:01:32.967Z,100622.03
2022-12-11T09:03:59.454Z,100621.97
2022-12-11T09:06:29.248Z,100621.94
2022-12-11T09:08:58.451Z,100630.53
2022-12-11T09:11:28.252Z,100630.47
2022-12-11T09:13:54.936Z,100622.88
2022-12-11T09:16:23.502Z,100629.66
2022-12-11T09:18:51.849Z,100624.88
2022-12-11T09:21:20.980Z,100633.56
2022-12-11T09:23:48.241Z,100630.44
2022-12-11T09:26:16.899Z,100622.81
2022-12-11T09:28:46.683Z,100625.63
2022-12-11T09:31:25.742Z,100619.41
2022-12-11T09:33:55.351Z,100617.63
2022-12-11T09:36:22.804Z,100612.47
2022-12-11T09:38:49.518Z,100620.66
2022-12-11T09:41:22.043Z,100618.03
2022-12-11T09:43:51.460Z,100617.91
2022-12-11T09:46:21.604Z,100614.22
2022-12-11T09:48:53.544Z,100618.88
2022-12-11T09:51:26.079Z,100609.59
2022-12-11T09:53:56.754Z,100616.59
2022-12-11T09:57:18.671Z,100602.59
2022-12-11T09:59:52.739Z,100613.44
2022-12-11T10:02:32.420Z,100610.78
2022-12-11T10:05:24.169Z,100610.63
2022-12-11T10:08:06.109Z,100605.41
2022-12-11T10:10:42.901Z,100613.78
2022-12-11T10:13:15.169Z,100610.94
2022-12-11T10:16:06.667Z,100609.84
2022-12-11T10:18:33.883Z,100603.69
2022-12-11T10:21:03.180Z,100615.53
2022-12-11T10:23:38.227Z,100613.59
2022-12-11T10:26:14.193Z,100600.06
2022-12-11T10:28:40.710Z,100608.50
2022-12-11T10:31:19.140Z,100595.50
2022-12-11T10:34:02.122Z,100597.16
2022-12-11T10:36:35.629Z,100600.59
2022-12-11T10:39:03.213Z,100601.28
2022-12-11T10:41:39.280Z,100589.25
2022-12-11T10:44:21.995Z,100579.16
2022-12-11T10:47:02.650Z,100585.69
2022-12-11T10:49:31.124Z,100583.00
2022-12-11T10:52:01.349Z,100583.78
2022-12-11T10:54:27.752Z,100584.63
2022-12-11T10:56:54.896Z,100582.84
2022-12-11T10:59:32.024Z,100584.47
2022-12-11T11:01:58.757Z,100578.31
2022-12-11T11:04:35.657Z,100565.78
2022-12-11T11:07:31.488Z,100567.19
2022-12-11T11:10:27.450Z,100563.78
2022-12-11T11:13:01.584Z,100559.50
2022-12-11T11:15:31.393Z,100561.25
2022-12-11T11:18:16.694Z,100566.34
2022-12-11T11:20:47.869Z,100554.41
2022-12-11T11:23:16.454Z,100556.06
2022-12-11T11:25:52.473Z,100560.13
2022-12-11T11:28:26.998Z,100546.81
2022-12-11T11:31:08.438Z,100554.53
2022-12-11T11:33:38.001Z,100547.63
2022-12-11T11:36:07.735Z,100551.78
2022-12-11T11:39:20.480Z,100541.38
2022-12-11T11:41:51.805Z,100508.50
2022-12-11T11:44:44.284Z,100542.09
2022-12-11T11:47:34.584Z,100534.09
2022-12-11T11:50:08.434Z,100533.00
2022-12-11T11:52:44.204Z,100532.84
2022-12-11T11:55:35.451Z,100532.72
2022-12-11T11:58:13.968Z,100524.31
2022-12-11T12:00:40.605Z,100527.19
2022-12-11T12:03:13.857Z,100526.38
2022-12-11T12:05:40.294Z,100521.91
2022-12-11T12:08:12.860Z,100522.63
2022-12-11T12:10:58.015Z,100516.47
2022-12-11T12:13:54.561Z,100515.31
2022-12-11T12:16:52.330Z,100516.75
2022-12-11T12:19:24.044Z,100510.66
2022-12-11T12:21:53.036Z,100508.09
2022-12-11T12:24:43.643Z,100501.03
2022-12-11T12:27:51.084Z,100512.22
2022-12-11T12:30:22.102Z,100508.34
2022-12-11T12:33:04.196Z,100500.84
2022-12-11T12:35:36.677Z,100500.81
2022-12-11T12:38:09.428Z,100499.31
2022-12-11T12:41:02.179Z,100497.56
2022-12-11T12:43:40.822Z,100508.84
2022-12-11T12:46:35.511Z,100509.53
2022-12-11T12:49:03.586Z,100511.84
2022-12-11T12:51:30.947Z,100502.41
2022-12-11T12:54:00.475Z,100506.66
2022-12-11T12:56:30.596Z,100515.19
2022-12-11T12:58:57.732Z,100498.94
2022-12-11T13:01:27.478Z,100498.72
2022-12-11T13:03:57.545Z,100505.25
2022-12-11T13:06:40.767Z,100508.50
2022-12-11T13:09:28.026Z,100502.41
2022-12-11T13:11:59.516Z,100498.06
2022-12-11T13:14:33.734Z,100498.06
2022-12-11T13:17:34.960Z,100488.59
2022-12-11T13:20:20.804Z,100496.31
2022-12-11T13:23:11.660Z,100492.94
2022-12-11T13:25:55.248Z,100491.91
2022-12-11T13:28:24.330Z,100498.88
2022-12-11T13:31:01.416Z,100495.59
2022-12-11T13:33:30.377Z,100486.88
2022-12-11T13:36:14.965Z,100493.63
2022-12-11T13:38:50.990Z,100497.13
2022-12-11T13:41:19.531Z,100502.13
2022-12-11T13:43:48.820Z,100501.31
2022-12-11T13:46:21.183Z,100497.84
2022-12-11T13:48:53.765Z,100494.50
2022-12-11T13:51:22.909Z,100503.81
2022-12-11T13:53:49.801Z,100492.81
2022-12-11T13:56:18.895Z,100510.66
2022-12-11T13:58:45.523Z,100505.53
2022-12-11T14:01:32.692Z,100507.97
2022-12-11T14:04:08.365Z,100508.16
2022-12-11T14:06:36.958Z,100501.63
2022-12-11T14:09:05.513Z,100506.59
2022-12-11T14:11:38.577Z,100509.84
2022-12-11T14:14:08.217Z,100510.75
2022-12-11T14:16:35.026Z,100529.41
2022-12-11T14:19:05.374Z,100514.13
2022-12-11T14:21:32.159Z,100514.03
2022-12-11T14:24:03.333Z,100527.59
2022-12-11T14:26:34.302Z,100525.94
2022-12-11T14:29:00.995Z,100520.97
2022-12-11T14:31:30.141Z,100525.94
2022-12-11T14:34:13.804Z,100531.94
2022-12-11T14:36:41.370Z,100527.75
2022-12-11T14:39:16.981Z,100532.81
2022-12-11T14:41:52.832Z,100530.22
2022-12-11T14:44:23.750Z,100539.66
2022-12-11T14:46:54.675Z,100523.41
2022-12-11T14:49:33.578Z,100533.66
2022-12-11T14:52:00.564Z,100527.97
2022-12-11T14:54:41.638Z,100533.72
2022-12-11T14:57:15.240Z,100522.03
2022-12-11T14:59:47.122Z,100528.56
2022-12-11T15:02:29.606Z,100537.19
2022-12-11T15:05:19.299Z,100528.75
2022-12-11T15:08:16.250Z,100535.84
2022-12-11T15:10:56.020Z,100540.13
2022-12-11T15:13:24.595Z,100535.94
2022-12-11T15:15:52.981Z,100532.41
2022-12-11T15:18:22.634Z,100538.47
2022-12-11T15:20:54.666Z,100530.88
2022-12-11T15:23:21.480Z,100532.69
2022-12-11T15:25:53.541Z,100531.78
2022-12-11T15:28:35.714Z,100536.97
2022-12-11T15:31:25.084Z,100540.41
2022-12-11T15:33:52.029Z,100541.25
2022-12-11T15:36:30.392Z,100531.16
2022-12-11T15:38:57.480Z,100539.13
2022-12-11T15:41:24.898Z,100539.13
2022-12-11T15:43:58.926Z,100533.38
2022-12-11T15:46:26.425Z,100543.56
2022-12-11T15:48:53.581Z,100524.44
2022-12-11T15:51:20.026Z,100544.75
2022-12-11T15:53:46.461Z,100540.50
2022-12-11T15:56:16.400Z,100547.31
2022-12-11T15:58:48.991Z,100545.78
2022-12-11T16:01:15.505Z,100551.72
2022-12-11T16:03:42.051Z,100552.63
2022-12-11T16:06:13.413Z,100538.47
2022-12-11T16:08:39.916Z,100550.22
2022-12-11T16:11:06.495Z,100546.13
2022-12-11T16:13:32.911Z,100537.13
2022-12-11T16:15:59.454Z,100551.31
2022-12-11T16:18:26.504Z,100530.38
2022-12-11T16:20:53.134Z,100542.91
2022-12-11T16:23:19.765Z,100549.63
2022-12-11T16:25:47.018Z,100534.44
2022-12-11T16:28:15.361Z,100549.75
2022-12-11T16:30:43.487Z,100546.38
2022-12-11T16:33:13.159Z,100539.53
2022-12-11T16:35:41.709Z,100537.91
2022-12-11T16:38:09.993Z,100528.69
2022-12-11T16:40:37.318Z,100529.66
2022-12-11T16:43:05.112Z,100542.31
2022-12-11T16:45:32.246Z,100537.47
2022-12-11T16:47:58.819Z,100529.72
2022-12-11T16:50:25.972Z,100527.22
2022-12-11T16:52:52.493Z,100530.59
2022-12-11T16:55:22.149Z,100536.63
2022-12-11T16:57:48.659Z,100524.84
2022-12-11T17:00:15.804Z,100547.03
2022-12-11T17:02:42.439Z,100536.94
2022-12-11T17:05:09.301Z,100531.78
2022-12-11T17:07:35.958Z,100534.34
2022-12-11T17:10:03.272Z,100530.34
2022-12-11T17:12:30.450Z,100531.13
2022-12-11T17:14:57.383Z,100520.19
2022-12-11T17:17:24.768Z,100527.78
2022-12-11T17:19:51.273Z,100521.84
2022-12-11T17:22:17.831Z,100534.53
2022-12-11T17:24:44.404Z,100528.66
2022-12-11T17:27:10.982Z,100543.19
2022-12-11T17:29:37.898Z,100533.75
2022-12-11T17:32:04.725Z,100545.88
2022-12-11T17:34:37.572Z,100550.88
2022-12-11T17:37:04.999Z,100539.94
2022-12-11T17:39:31.726Z,100540.66
2022-12-11T17:41:58.359Z,100548.31
2022-12-11T17:44:26.623Z,100558.38
2022-12-11T17:46:53.478Z,100551.56
2022-12-11T17:49:20.060Z,100546.31
2022-12-11T17:51:46.654Z,100529.66
2022-12-11T17:54:13.324Z,100526.94
2022-12-11T17:56:40.543Z,100529.53
2022-12-11T17:59:07.100Z,100531.91
2022-12-11T18:01:33.933Z,100539.50
2022-12-11T18:04:01.905Z,100531.75
2022-12-11T18:06:28.736Z,100524.22
2022-12-11T18:08:55.324Z,100530.13
2022-12-11T18:11:22.919Z,100513.38
2022-12-11T18:13:51.958Z,100525.94
2022-12-11T18:16:26.204Z,100535.19
2022-12-11T18:18:53.515Z,100536.97
2022-12-11T18:21:23.363Z,100544.81
2022-12-11T18:23:50.991Z,100545.72
2022-12-11T18:26:19.078Z,100536.38
2022-12-11T18:28:46.237Z,100524.66
2022-12-11T18:31:13.692Z,100532.19
2022-12-11T18:33:42.504Z,100529.78
2022-12-11T18:36:09.793Z,100536.59
2022-12-11T18:38:36.298Z,100534.16
2022-12-11T18:41:05.137Z,100535.94
2022-12-11T18:43:31.696Z,100538.34
2022-12-11T18:45:58.204Z,100534.91
2022-12-11T18:48:24.651Z,100536.59
2022-12-11T18:50:51.830Z,100542.28
2022-12-11T18:53:19.575Z,100526.22
2022-12-11T18:55:48.246Z,100537.88
2022-12-11T18:58:17.652Z,100529.44
2022-12-11T19:00:44.854Z,100528.72
2022-12-11T19:03:13.624Z,100531.56
2022-12-11T19:05:43.728Z,100533.13
2022-12-11T19:08:12.630Z,100520.28
2022-12-11T19:10:46.452Z,100529.78
2022-12-11T19:13:13.709Z,100536.50
2022-12-11T19:15:42.792Z,100538.16
2022-12-11T19:18:09.748Z,100533.75
2022-12-11T19:20:55.424Z,100516.81
2022-12-11T19:23:24.492Z,100526.69
2022-12-11T19:25:51.040Z,100529.19
2022-12-11T19:28:17.634Z,100524.91
2022-12-11T19:30:48.776Z,100508.47
2022-12-11T19:33:16.303Z,100530.34
2022-12-11T19:35:42.979Z,100533.06
2022-12-11T19:38:09.851Z,100541.50
2022-12-11T19:40:45.015Z,100528.50
2022-12-11T19:43:11.873Z,100516.69
2022-12-11T19:45:38.486Z,100519.94
2022-12-11T19:48:05.672Z,100529.00
2022-12-11T19:50:32.166Z,100536.72
2022-12-11T19:52:58.701Z,100534.06
2022-12-11T19:55:25.127Z,100527.25
2022-12-11T19:57:51.664Z,100523.19
2022-12-11T20:00:18.877Z,100519.78
2022-12-11T20:02:45.402Z,100521.38
2022-12-11T20:05:13.188Z,100525.47
2022-12-11T20:07:40.125Z,100517.94
2022-12-11T20:10:07.193Z,100523.75
2022-12-11T20:12:33.766Z,100533.84
2022-12-11T20:15:00.257Z,100531.31
2022-12-11T20:17:26.814Z,100522.84
2022-12-11T20:19:53.289Z,100526.13
2022-12-11T20:22:19.807Z,100514.47
2022-12-11T20:24:46.279Z,100523.53
2022-12-11T20:27:12.778Z,100523.56
2022-12-11T20:29:39.488Z,100525.41
2022-12-11T20:32:06.698Z,100520.31
2022-12-11T20:34:33.278Z,100522.78
2022-12-11T20:37:00.384Z,100529.78
2022-12-11T20:39:27.138Z,100526.19
2022-12-11T20:41:53.666Z,100527.09
2022-12-11T20:44:20.412Z,100523.63
2022-12-11T20:46:46.977Z,100529.66
2022-12-11T20:49:13.440Z,100529.72
2022-12-11T20:51:40.298Z,100517.69
2022-12-11T20:54:07.039Z,100517.69
2022-12-11T20:56:33.573Z,100515.19
2022-12-11T20:59:00.851Z,100509.44
2022-12-11T21:01:30.688Z,100519.44
2022-12-11T21:03:58.539Z,100523.78
2022-12-11T21:06:31.019Z,100509.41
2022-12-11T21:09:03.191Z,100522.13
2022-12-11T21:11:29.775Z,100519.66
2022-12-11T21:13:56.390Z,100520.41
2022-12-11T21:16:23.613Z,100522.06
2022-12-11T21:18:50.558Z,100519.53
2022-12-11T21:21:17.637Z,100525.53
2022-12-11T21:23:44.992Z,100525.47
2022-12-11T21:26:12.038Z,100523.78
2022-12-11T21:28:38.731Z,100529.78
2022-12-11T21:31:08.309Z,100535.81
2022-12-11T21:33:35.764Z,100527.25
2022-12-11T21:36:03.512Z,100530.91
2022-12-11T21:38:30.187Z,100530.91
2022-12-11T21:40:56.725Z,100529.94
2022-12-11T21:43:24.124Z,100523.91
2022-12-11T21:46:07.042Z,100525.72
2022-12-11T21:48:33.671Z,100532.56
2022-12-11T21:51:15.518Z,100532.63
2022-12-11T21:53:42.991Z,100530.22
2022-12-11T21:56:15.332Z,100536.94
2022-12-11T21:58:42.511Z,100530.34
2022-12-11T22:01:23.213Z,100553.16
2022-12-11T22:03:50.790Z,100544.69
2022-12-11T22:06:17.411Z,100551.44
2022-12-11T22:08:44.141Z,100550.66
2022-12-11T22:11:10.893Z,100528.72
2022-12-11T22:13:37.342Z,100549.00
2022-12-11T22:16:03.985Z,100547.94
2022-12-11T22:18:30.523Z,100553.00
2022-12-11T22:20:58.009Z,100558.03
2022-12-11T22:23:24.925Z,100554.56
2022-12-11T22:25:52.651Z,100557.09
2022-12-11T22:28:19.490Z,100541.94
2022-12-11T22:30:46.290Z,100559.59
2022-12-11T22:33:12.991Z,100543.53
2022-12-11T22:35:39.681Z,100556.06
2022-12-11T22:38:06.785Z,100555.19
2022-12-11T22:40:33.383Z,100555.19
2022-12-11T22:43:00.286Z,100557.69
2022-12-11T22:45:26.800Z,100563.66
2022-12-11T22:47:53.262Z,100550.13
2022-12-11T22:50:19.796Z,100556.66
2022-12-11T22:52:46.343Z,100554.00
2022-12-11T22:55:13.135Z,100555.59
2022-12-11T22:57:39.838Z,100554.78
2022-12-11T23:00:13.211Z,100555.50
2022-12-11T23:02:39.852Z,100565.00
2022-12-11T23:05:06.893Z,100548.78
2022-12-11T23:07:34.031Z,100554.59
2022-12-11T23:10:01.035Z,100553.69
2022-12-11T23:12:27.559Z,100553.75
2022-12-11T23:14:54.012Z,100547.19
2022-12-11T23:17:20.505Z,100551.19
2022-12-11T23:19:47.028Z,100562.31
2022-12-11T23:22:13.857Z,100555.44
2022-12-11T23:24:40.636Z,100563.94
2022-12-11T23:27:07.342Z,100564.94
2022-12-11T23:29:34.131Z,100569.00
2022-12-11T23:32:00.928Z,100551.00
2022-12-11T23:34:27.333Z,100562.91
2022-12-11T23:36:54.012Z,100561.19
2022-12-11T23:39:20.467Z,100569.72
2022-12-11T23:41:46.939Z,100575.72
2022-12-11T23:44:13.430Z,100572.28
2022-12-11T23:46:39.849Z,100565.56
2022-12-11T23:49:06.362Z,100567.22
2022-12-11T23:51:32.813Z,100575.03
2022-12-11T23:53:59.250Z,100575.00
2022-12-11T23:56:28.339Z,100575.00
2022-12-11T23:58:55.741Z,100571.69
